createdAt,value
2023-03-15T00:01:11.164Z,1.05
2023-03-15T00:03:37.734Z,0.95
2023-03-15T00:06:04.671Z,1.52
2023-03-15T00:08:33.383Z,1.20
2023-03-15T00:11:00.285Z,0.88
2023-03-15T00:13:27.279Z,1.20
2023-03-15T00:15:58.654Z,1.83
2023-03-15T00:18:25.257Z,1.00
2023-03-15T00:20:51.924Z,1.35
2023-03-15T00:23:18.343Z,1.00
2023-03-15T00:25:46.068Z,1.13
2023-03-15T00:28:13.739Z,0.98
2023-03-15T00:30:40.311Z,0.80
2023-03-15T00:33:06.845Z,1.33
2023-03-15T00:35:34.068Z,0.88
2023-03-15T00:38:00.821Z,0.70
2023-03-15T00:40:27.623Z,1.00
2023-03-15T00:42:54.100Z,1.23
2023-03-15T00:45:22.057Z,1.10
2023-03-15T00:47:50.132Z,0.68
2023-03-15T00:50:16.642Z,1.00
2023-03-15T00:52:43.160Z,1.83
2023-03-15T00:55:14.429Z,1.23
2023-03-15T00:57:42.376Z,1.35
2023-03-15T01:00:14.671Z,0.90
2023-03-15T01:02:41.761Z,0.70
2023-03-15T01:05:09.685Z,1.02
2023-03-15T01:07:36.405Z,1.02
2023-03-15T01:10:04.810Z,0.88
2023-03-15T01:12:32.792Z,0.90
2023-03-15T01:15:00.366Z,1.15
2023-03-15T01:17:26.754Z,1.02
2023-03-15T01:19:53.433Z,1.27
2023-03-15T01:22:20.313Z,0.80
2023-03-15T01:24:46.968Z,1.17
2023-03-15T01:27:13.464Z,1.10
2023-03-15T01:29:39.918Z,1.00
2023-03-15T01:32:07.120Z,1.33
2023-03-15T01:34:34.727Z,0.98
2023-03-15T01:37:02.783Z,0.90
2023-03-15T01:39:30.048Z,1.25
2023-03-15T01:41:56.784Z,0.95
2023-03-15T01:44:24.131Z,1.00
2023-03-15T01:46:50.831Z,1.00
2023-03-15T01:49:19.976Z,1.17
2023-03-15T01:51:54.921Z,1.20
2023-03-15T01:54:36.722Z,0.90
2023-03-15T01:57:08.648Z,1.40
2023-03-15T01:59:40.492Z,1.25
2023-03-15T02:02:08.354Z,1.20
2023-03-15T02:04:48.439Z,1.55
2023-03-15T02:07:18.041Z,1.63
2023-03-15T02:09:52.392Z,2.28
2023-03-15T02:12:19.414Z,1.67
2023-03-15T02:14:46.077Z,1.23
2023-03-15T02:17:12.486Z,1.10
2023-03-15T02:20:19.911Z,1.35
2023-03-15T02:23:24.874Z,1.35
2023-03-15T02:26:09.014Z,1.20
2023-03-15T02:28:35.601Z,1.20
2023-03-15T02:31:03.195Z,1.00
2023-03-15T02:33:39.024Z,1.95
2023-03-15T02:36:21.773Z,2.30
2023-03-15T02:38:49.340Z,1.50
2023-03-15T02:41:19.483Z,1.23
2023-03-15T02:43:48.863Z,0.98
2023-03-15T02:46:17.746Z,1.95
2023-03-15T02:48:46.006Z,1.10
2023-03-15T02:51:24.491Z,1.52
2023-03-15T02:53:50.960Z,1.63
2023-03-15T02:56:17.328Z,1.15
2023-03-15T02:58:47.205Z,1.88
2023-03-15T03:01:14.424Z,1.40
2023-03-15T03:03:45.638Z,1.48
2023-03-15T03:06:15.532Z,1.52
2023-03-15T03:08:42.271Z,1.35
2023-03-15T03:11:08.690Z,1.42
2023-03-15T03:13:35.129Z,1.20
2023-03-15T03:16:01.551Z,1.00
2023-03-15T03:18:29.473Z,1.05
2023-03-15T03:20:57.673Z,1.15
2023-03-15T03:23:26.161Z,1.10
2023-03-15T03:25:57.046Z,0.80
2023-03-15T03:28:26.379Z,0.82
2023-03-15T03:30:54.463Z,0.70
2023-03-15T03:33:22.130Z,0.93
2023-03-15T03:35:49.690Z,0.80
2023-03-15T03:38:16.456Z,0.85
2023-03-15T03:40:42.927Z,0.88
2023-03-15T03:43:09.473Z,1.30
2023-03-15T03:45:36.047Z,1.17
2023-03-15T03:48:02.519Z,0.93
2023-03-15T03:50:29.023Z,0.93
2023-03-15T03:52:55.518Z,0.93
2023-03-15T03:55:25.185Z,0.90
2023-03-15T03:57:52.940Z,1.17
2023-03-15T04:00:20.004Z,0.60
2023-03-15T04:02:46.532Z,0.80
2023-03-15T04:05:13.346Z,0.85
2023-03-15T04:07:39.790Z,1.20
2023-03-15T04:10:06.463Z,0.90
2023-03-15T04:12:32.935Z,1.20
2023-03-15T04:14:59.391Z,0.73
2023-03-15T04:17:25.835Z,0.70
2023-03-15T04:19:52.341Z,0.75
2023-03-15T04:22:18.824Z,1.52
2023-03-15T04:24:45.322Z,0.93
2023-03-15T04:27:14.583Z,0.98
2023-03-15T04:29:43.554Z,1.95
2023-03-15T04:32:10.887Z,1.95
2023-03-15T04:34:40.141Z,1.25
2023-03-15T04:37:06.938Z,1.13
2023-03-15T04:39:33.362Z,0.75
2023-03-15T04:41:59.815Z,1.00
2023-03-15T04:44:27.481Z,0.60
2023-03-15T04:46:58.060Z,0.85
2023-03-15T04:49:24.709Z,1.55
2023-03-15T04:51:51.084Z,0.85
2023-03-15T04:54:17.519Z,0.70
2023-03-15T04:56:43.867Z,0.95
2023-03-15T04:59:11.180Z,0.93
2023-03-15T05:01:38.209Z,0.50
2023-03-15T05:04:04.787Z,0.70
2023-03-15T05:06:31.204Z,0.50
2023-03-15T05:08:57.580Z,0.80
2023-03-15T05:11:24.113Z,0.60
2023-03-15T05:13:50.560Z,0.52
2023-03-15T05:16:17.245Z,0.55
2023-03-15T05:18:45.370Z,0.40
2023-03-15T05:21:13.045Z,0.70
2023-03-15T05:23:39.598Z,0.73
2023-03-15T05:26:06.159Z,0.57
2023-03-15T05:28:32.613Z,0.40
2023-03-15T05:31:00.641Z,0.50
2023-03-15T05:33:27.338Z,0.90
2023-03-15T05:35:56.051Z,0.70
2023-03-15T05:38:26.392Z,1.03
2023-03-15T05:40:53.706Z,1.00
2023-03-15T05:43:20.685Z,1.00
2023-03-15T05:45:48.560Z,1.40
2023-03-15T05:48:16.127Z,1.37
2023-03-15T05:50:42.721Z,1.13
2023-03-15T05:53:09.083Z,1.00
2023-03-15T05:55:37.090Z,1.13
2023-03-15T05:58:03.581Z,1.50
2023-03-15T06:00:30.153Z,0.80
2023-03-15T06:02:56.584Z,1.30
2023-03-15T06:05:23.056Z,0.93
2023-03-15T06:07:49.500Z,1.23
2023-03-15T06:10:16.121Z,0.80
2023-03-15T06:12:42.510Z,0.97
2023-03-15T06:15:09.393Z,0.80
2023-03-15T06:17:35.850Z,0.60
2023-03-15T06:20:02.477Z,0.90
2023-03-15T06:22:28.907Z,1.10
2023-03-15T06:24:55.539Z,1.07
2023-03-15T06:27:22.240Z,0.93
2023-03-15T06:29:50.479Z,0.80
2023-03-15T06:32:17.237Z,1.08
2023-03-15T06:34:43.670Z,0.63
2023-03-15T06:37:10.199Z,0.68
2023-03-15T06:39:36.726Z,1.08
2023-03-15T06:42:04.469Z,1.13
2023-03-15T06:44:31.580Z,1.25
2023-03-15T06:46:58.090Z,1.45
2023-03-15T06:49:24.547Z,0.90
2023-03-15T06:51:51.071Z,1.05
2023-03-15T06:54:17.626Z,1.10
2023-03-15T06:56:44.126Z,1.20
2023-03-15T06:59:11.425Z,1.08
2023-03-15T07:01:37.998Z,1.20
2023-03-15T07:04:07.197Z,1.08
2023-03-15T07:06:34.716Z,1.23
2023-03-15T07:09:01.469Z,1.10
2023-03-15T07:11:27.912Z,1.30
2023-03-15T07:13:54.308Z,0.90
2023-03-15T07:16:20.803Z,1.50
2023-03-15T07:18:47.247Z,1.63
2023-03-15T07:21:13.777Z,1.23
2023-03-15T07:23:40.245Z,1.15
2023-03-15T07:26:07.069Z,1.23
2023-03-15T07:28:33.526Z,0.75
2023-03-15T07:31:05.282Z,0.90
2023-03-15T07:33:33.513Z,1.10
2023-03-15T07:36:00.236Z,1.30
2023-03-15T07:38:28.899Z,1.10
2023-03-15T07:40:55.511Z,1.58
2023-03-15T07:43:22.381Z,0.85
2023-03-15T07:45:49.248Z,1.10
2023-03-15T07:48:15.904Z,1.30
2023-03-15T07:50:42.481Z,1.27
2023-03-15T07:53:09.129Z,1.05
2023-03-15T07:55:35.723Z,1.15
2023-03-15T07:58:02.817Z,1.48
2023-03-15T08:00:30.241Z,0.98
2023-03-15T08:02:57.174Z,0.98
2023-03-15T08:05:24.875Z,1.20
2023-03-15T08:07:52.304Z,0.77
2023-03-15T08:10:18.917Z,1.30
2023-03-15T08:12:45.397Z,0.75
2023-03-15T08:15:15.533Z,0.80
2023-03-15T08:17:42.468Z,0.73
2023-03-15T08:20:14.956Z,0.70
2023-03-15T08:22:44.628Z,0.63
2023-03-15T08:25:12.207Z,0.90
2023-03-15T08:27:39.508Z,0.93
2023-03-15T08:30:06.442Z,0.75
2023-03-15T08:32:32.886Z,1.10
2023-03-15T08:34:59.467Z,0.95
2023-03-15T08:37:25.990Z,0.95
2023-03-15T08:40:00.948Z,1.02
2023-03-15T08:42:27.911Z,0.57
2023-03-15T08:44:54.290Z,0.85
2023-03-15T08:47:20.702Z,0.70
2023-03-15T08:49:47.151Z,0.63
2023-03-15T08:52:13.567Z,0.50
2023-03-15T08:54:40.469Z,0.63
2023-03-15T08:57:06.929Z,0.75
2023-03-15T08:59:33.346Z,0.80
2023-03-15T09:02:00.704Z,0.68
2023-03-15T09:04:27.547Z,0.88
2023-03-15T09:06:54.277Z,0.90
2023-03-15T09:09:20.697Z,0.73
2023-03-15T09:11:47.119Z,0.90
2023-03-15T09:14:13.506Z,1.10
2023-03-15T09:16:39.889Z,0.60
2023-03-15T09:19:06.447Z,0.68
2023-03-15T09:21:32.916Z,0.70
2023-03-15T09:23:59.284Z,0.70
2023-03-15T09:26:25.696Z,0.45
2023-03-15T09:28:52.091Z,0.85
2023-03-15T09:31:18.556Z,0.95
2023-03-15T09:33:48.278Z,0.63
2023-03-15T09:36:14.743Z,0.60
2023-03-15T09:38:43.105Z,0.60
2023-03-15T09:41:22.295Z,0.80
2023-03-15T09:44:02.184Z,0.70
2023-03-15T09:46:42.021Z,0.50
2023-03-15T09:49:19.316Z,0.80
2023-03-15T09:51:57.876Z,0.57
2023-03-15T09:54:32.151Z,0.55
2023-03-15T09:57:03.304Z,0.70
2023-03-15T09:59:35.943Z,0.57
2023-03-15T10:02:16.442Z,0.55
2023-03-15T10:04:45.431Z,1.58
2023-03-15T10:07:15.786Z,1.08
2023-03-15T10:09:43.487Z,0.57
2023-03-15T10:12:15.135Z,0.90
2023-03-15T10:15:01.771Z,0.60
2023-03-15T10:17:59.490Z,0.50
2023-03-15T10:20:34.211Z,0.90
2023-03-15T10:23:13.089Z,1.27
2023-03-15T10:25:41.092Z,0.63
2023-03-15T10:28:23.284Z,0.60
2023-03-15T10:30:51.577Z,0.60
2023-03-15T10:33:38.301Z,0.60
2023-03-15T10:36:21.561Z,0.80
2023-03-15T10:38:50.242Z,0.80
2023-03-15T10:41:50.201Z,0.70
2023-03-15T10:44:20.617Z,0.52
2023-03-15T10:47:23.041Z,0.43
2023-03-15T10:49:56.435Z,0.35
2023-03-15T10:52:40.913Z,0.73
2023-03-15T10:55:26.021Z,0.57
2023-03-15T10:57:56.183Z,0.60
2023-03-15T11:00:24.007Z,0.45
2023-03-15T11:03:03.167Z,0.80
2023-03-15T11:05:32.518Z,0.50
2023-03-15T11:08:00.843Z,0.60
2023-03-15T11:10:33.729Z,0.70
2023-03-15T11:13:21.963Z,0.70
2023-03-15T11:16:15.010Z,0.73
2023-03-15T11:18:46.667Z,0.52
2023-03-15T11:21:15.231Z,0.82
2023-03-15T11:23:44.658Z,1.10
2023-03-15T11:26:32.989Z,1.02
2023-03-15T11:29:03.814Z,0.93
2023-03-15T11:31:31.306Z,0.38
2023-03-15T11:34:06.801Z,0.40
2023-03-15T11:36:39.017Z,0.82
2023-03-15T11:39:05.813Z,0.43
2023-03-15T11:41:51.290Z,0.60
2023-03-15T11:44:39.954Z,0.80
2023-03-15T11:47:25.008Z,0.70
2023-03-15T11:49:56.747Z,0.60
2023-03-15T11:52:26.315Z,0.70
2023-03-15T11:54:57.136Z,0.80
2023-03-15T11:57:30.592Z,0.70
2023-03-15T11:59:57.964Z,0.52
2023-03-15T12:02:26.202Z,0.68
2023-03-15T12:04:54.234Z,0.77
2023-03-15T12:07:23.783Z,0.50
2023-03-15T12:10:17.292Z,0.77
2023-03-15T12:12:57.874Z,0.50
2023-03-15T12:15:24.839Z,0.65
2023-03-15T12:17:55.334Z,0.68
2023-03-15T12:20:34.117Z,1.25
2023-03-15T12:23:19.968Z,0.55
2023-03-15T12:25:56.386Z,0.68
2023-03-15T12:28:31.568Z,0.50
2023-03-15T12:31:02.144Z,0.60
2023-03-15T12:33:32.281Z,0.60
2023-03-15T12:36:10.262Z,0.77
2023-03-15T12:38:41.806Z,0.50
2023-03-15T12:41:29.280Z,0.40
2023-03-15T12:44:27.574Z,0.60
2023-03-15T12:46:55.890Z,0.40
2023-03-15T12:49:37.649Z,0.80
2023-03-15T12:52:24.337Z,0.45
2023-03-15T12:55:03.705Z,0.40
2023-03-15T12:57:36.940Z,0.43
2023-03-15T13:00:11.774Z,0.47
2023-03-15T13:02:45.959Z,1.08
2023-03-15T13:05:19.269Z,0.40
2023-03-15T13:08:19.697Z,0.75
2023-03-15T13:10:51.911Z,0.40
2023-03-15T13:13:49.009Z,0.38
2023-03-15T13:16:44.509Z,0.57
2023-03-15T13:19:14.138Z,0.50
2023-03-15T13:22:01.959Z,0.70
2023-03-15T13:24:44.892Z,0.47
2023-03-15T13:27:53.256Z,0.40
2023-03-15T13:30:32.316Z,0.90
2023-03-15T13:33:17.543Z,0.50
2023-03-15T13:35:47.302Z,0.50
2023-03-15T13:38:44.114Z,0.40
2023-03-15T13:41:19.534Z,0.32
2023-03-15T13:43:47.029Z,0.68
2023-03-15T13:46:13.458Z,0.75
2023-03-15T13:48:42.373Z,0.65
2023-03-15T13:51:11.432Z,0.30
2023-03-15T13:53:49.433Z,0.30
2023-03-15T13:56:20.957Z,0.65
2023-03-15T13:58:48.910Z,0.65
2023-03-15T14:01:16.982Z,0.65
2023-03-15T14:03:48.893Z,1.10
2023-03-15T14:06:23.744Z,0.38
2023-03-15T14:08:54.739Z,0.30
2023-03-15T14:11:24.246Z,0.70
2023-03-15T14:13:58.373Z,1.30
2023-03-15T14:16:57.209Z,0.60
2023-03-15T14:19:31.429Z,0.60
2023-03-15T14:22:01.471Z,0.45
2023-03-15T14:24:35.932Z,0.35
2023-03-15T14:27:07.351Z,0.47
2023-03-15T14:29:36.463Z,0.95
2023-03-15T14:32:08.348Z,0.47
2023-03-15T14:34:44.169Z,0.40
2023-03-15T14:37:28.521Z,0.65
2023-03-15T14:40:24.947Z,0.40
2023-03-15T14:42:51.457Z,0.52
2023-03-15T14:45:19.466Z,0.80
2023-03-15T14:47:56.890Z,0.90
2023-03-15T14:50:27.728Z,0.28
2023-03-15T14:52:54.507Z,0.30
2023-03-15T14:55:29.753Z,0.60
2023-03-15T14:57:56.300Z,0.52
2023-03-15T15:00:22.975Z,0.95
2023-03-15T15:02:54.261Z,0.60
2023-03-15T15:05:27.036Z,0.60
2023-03-15T15:08:06.082Z,0.70
2023-03-15T15:10:34.764Z,0.82
2023-03-15T15:13:06.319Z,0.50
2023-03-15T15:15:47.417Z,0.82
2023-03-15T15:18:21.281Z,0.88
2023-03-15T15:20:47.873Z,0.60
2023-03-15T15:23:23.099Z,0.68
2023-03-15T15:25:50.949Z,0.60
2023-03-15T15:28:33.416Z,0.57
2023-03-15T15:31:00.891Z,0.35
2023-03-15T15:33:27.386Z,0.65
2023-03-15T15:35:56.170Z,0.38
2023-03-15T15:38:26.974Z,0.30
2023-03-15T15:40:53.415Z,0.38
2023-03-15T15:43:19.856Z,0.80
2023-03-15T15:45:46.634Z,0.32
2023-03-15T15:48:13.119Z,0.50
2023-03-15T15:50:39.571Z,0.47
2023-03-15T15:53:06.621Z,0.88
2023-03-15T15:55:36.020Z,0.70
2023-03-15T15:58:04.645Z,0.45
2023-03-15T16:00:31.492Z,0.80
2023-03-15T16:02:59.055Z,0.90
2023-03-15T16:05:27.144Z,0.80
2023-03-15T16:07:55.454Z,0.40
2023-03-15T16:10:30.365Z,0.45
2023-03-15T16:12:57.355Z,0.40
2023-03-15T16:15:24.076Z,0.50
2023-03-15T16:17:50.572Z,0.45
2023-03-15T16:20:18.687Z,0.50
2023-03-15T16:22:48.860Z,0.63
2023-03-15T16:25:24.789Z,0.57
2023-03-15T16:27:53.553Z,0.70
2023-03-15T16:30:30.367Z,0.45
2023-03-15T16:32:57.441Z,0.75
2023-03-15T16:35:35.630Z,0.70
2023-03-15T16:38:05.940Z,0.90
2023-03-15T16:40:34.605Z,0.60
2023-03-15T16:43:01.233Z,0.50
2023-03-15T16:45:28.486Z,0.50
2023-03-15T16:47:56.344Z,0.40
2023-03-15T16:50:23.172Z,0.60
2023-03-15T16:52:53.106Z,0.70
2023-03-15T16:55:24.877Z,0.95
2023-03-15T16:57:52.083Z,0.82
2023-03-15T17:00:20.377Z,0.80
2023-03-15T17:02:49.360Z,0.75
2023-03-15T17:05:19.268Z,0.60
2023-03-15T17:07:47.600Z,0.50
2023-03-15T17:10:22.238Z,0.52
2023-03-15T17:15:20.313Z,0.68
2023-03-15T17:17:48.462Z,0.75
2023-03-15T17:20:14.960Z,0.55
2023-03-15T17:22:42.440Z,0.77
2023-03-15T17:25:10.560Z,0.80
2023-03-15T17:27:42.170Z,0.70
2023-03-15T17:30:20.872Z,0.70
2023-03-15T17:32:47.728Z,0.80
2023-03-15T17:35:16.100Z,0.80
2023-03-15T17:37:45.930Z,0.80
2023-03-15T17:40:21.300Z,0.80
2023-03-15T17:42:49.232Z,0.93
2023-03-15T17:45:21.409Z,1.15
2023-03-15T17:47:48.832Z,0.90
2023-03-15T17:50:16.522Z,0.95
2023-03-15T17:52:44.310Z,1.10
2023-03-15T17:55:19.099Z,1.27
2023-03-15T17:57:54.098Z,1.30
2023-03-15T18:00:22.006Z,1.10
2023-03-15T18:02:55.282Z,1.25
2023-03-15T18:05:25.132Z,1.40
2023-03-15T18:07:58.546Z,2.20
2023-03-15T18:10:28.682Z,2.90
2023-03-15T18:12:55.585Z,1.88
2023-03-15T18:15:23.495Z,1.67
2023-03-15T18:17:50.821Z,1.40
2023-03-15T18:20:19.001Z,1.17
2023-03-15T18:22:45.842Z,1.33
2023-03-15T18:25:22.016Z,1.40
2023-03-15T18:27:49.357Z,1.27
2023-03-15T18:30:18.812Z,1.25
2023-03-15T18:32:45.531Z,1.40
2023-03-15T18:35:32.737Z,2.30
2023-03-15T18:37:59.641Z,2.67
2023-03-15T18:40:29.563Z,3.88
2023-03-15T18:42:57.242Z,3.30
2023-03-15T18:45:29.987Z,3.97
2023-03-15T18:47:56.956Z,3.65
2023-03-15T18:50:23.505Z,3.33
2023-03-15T18:52:50.496Z,3.33
2023-03-15T18:55:19.357Z,3.70
2023-03-15T18:57:46.297Z,3.33
2023-03-15T19:00:15.486Z,3.53
2023-03-15T19:02:44.178Z,4.78
2023-03-15T19:05:12.864Z,4.68
2023-03-15T19:07:40.335Z,4.25
2023-03-15T19:10:10.738Z,4.00
2023-03-15T19:12:37.516Z,3.78
2023-03-15T19:15:05.781Z,3.38
2023-03-15T19:17:32.662Z,3.17
2023-03-15T19:19:59.142Z,3.00
2023-03-15T19:22:26.538Z,3.30
2023-03-15T19:24:52.994Z,3.15
2023-03-15T19:27:19.711Z,2.63
2023-03-15T19:29:46.227Z,3.90
2023-03-15T19:32:12.692Z,3.35
2023-03-15T19:34:39.195Z,3.33
2023-03-15T19:37:05.926Z,2.25
2023-03-15T19:39:32.376Z,2.70
2023-03-15T19:41:59.167Z,2.03
2023-03-15T19:44:25.891Z,2.38
2023-03-15T19:46:52.444Z,1.73
2023-03-15T19:49:19.067Z,2.70
2023-03-15T19:51:45.527Z,2.58
2023-03-15T19:54:11.958Z,2.47
2023-03-15T19:56:38.461Z,2.45
2023-03-15T19:59:05.352Z,2.50
2023-03-15T20:01:32.429Z,2.78
2023-03-15T20:03:59.433Z,3.03
2023-03-15T20:06:26.240Z,2.95
2023-03-15T20:08:52.672Z,3.15
2023-03-15T20:11:25.083Z,3.05
2023-03-15T20:13:52.681Z,2.85
2023-03-15T20:16:20.654Z,3.10
2023-03-15T20:18:48.684Z,3.35
2023-03-15T20:21:15.146Z,3.55
2023-03-15T20:23:41.784Z,3.60
2023-03-15T20:26:13.811Z,3.38
2023-03-15T20:28:41.881Z,4.78
2023-03-15T20:31:10.359Z,3.72
2023-03-15T20:33:36.859Z,4.88
2023-03-15T20:36:03.826Z,4.50
2023-03-15T20:38:30.273Z,4.40
2023-03-15T20:40:57.170Z,4.50
2023-03-15T20:43:23.614Z,7.78
2023-03-15T20:45:54.445Z,8.23
2023-03-15T20:48:23.146Z,7.40
2023-03-15T20:50:49.522Z,6.72
2023-03-15T20:53:15.914Z,4.70
2023-03-15T20:55:44.493Z,4.25
2023-03-15T20:58:11.442Z,3.95
2023-03-15T21:00:41.312Z,3.55
2023-03-15T21:03:10.804Z,3.08
2023-03-15T21:05:38.886Z,2.78
2023-03-15T21:08:05.741Z,3.15
2023-03-15T21:10:32.375Z,3.20
2023-03-15T21:12:59.073Z,3.78
2023-03-15T21:15:25.652Z,3.40
2023-03-15T21:17:53.278Z,3.83
2023-03-15T21:20:19.978Z,3.40
2023-03-15T21:22:46.601Z,3.13
2023-03-15T21:25:13.532Z,3.05
2023-03-15T21:27:40.366Z,3.50
2023-03-15T21:30:11.164Z,3.33
2023-03-15T21:32:38.495Z,4.00
2023-03-15T21:35:05.591Z,3.92
2023-03-15T21:37:35.342Z,3.90
2023-03-15T21:40:05.653Z,3.60
2023-03-15T21:42:33.949Z,3.72
2023-03-15T21:45:00.761Z,3.88
2023-03-15T21:47:27.818Z,3.45
2023-03-15T21:49:55.093Z,3.08
2023-03-15T21:52:21.684Z,3.17
2023-03-15T21:54:48.151Z,2.88
2023-03-15T21:57:14.577Z,3.53
2023-03-15T21:59:41.029Z,4.50
2023-03-15T22:02:10.756Z,4.78
2023-03-15T22:04:37.289Z,5.30
2023-03-15T22:07:03.686Z,4.55
2023-03-15T22:09:30.300Z,4.10
2023-03-15T22:11:56.772Z,3.40
2023-03-15T22:14:23.233Z,3.70
2023-03-15T22:16:49.718Z,3.25
2023-03-15T22:19:16.206Z,3.45
2023-03-15T22:21:42.582Z,3.40
2023-03-15T22:24:10.055Z,3.38
2023-03-15T22:26:36.676Z,3.47
2023-03-15T22:29:03.162Z,4.32
2023-03-15T22:31:32.308Z,3.83
2023-03-15T22:33:58.772Z,3.95
2023-03-15T22:36:25.153Z,3.90
2023-03-15T22:38:52.150Z,4.00
2023-03-15T22:41:19.477Z,3.78
2023-03-15T22:43:45.951Z,3.80
2023-03-15T22:46:13.010Z,4.30
2023-03-15T22:48:39.491Z,4.20
2023-03-15T22:51:08.963Z,3.80
2023-03-15T22:53:35.639Z,3.85
2023-03-15T22:56:03.660Z,4.18
2023-03-15T22:58:30.065Z,4.97
2023-03-15T23:00:56.509Z,4.50
2023-03-15T23:03:23.282Z,4.75
2023-03-15T23:05:49.809Z,3.95
2023-03-15T23:08:16.201Z,4.78
2023-03-15T23:10:42.689Z,3.97
2023-03-15T23:13:09.358Z,4.30
2023-03-15T23:15:35.795Z,4.22
2023-03-15T23:18:02.315Z,4.75
2023-03-15T23:20:29.265Z,3.80
2023-03-15T23:22:55.976Z,3.60
2023-03-15T23:25:23.062Z,4.40
2023-03-15T23:27:50.705Z,4.20
2023-03-15T23:30:17.688Z,5.05
2023-03-15T23:32:44.265Z,4.50
2023-03-15T23:35:15.002Z,4.40
2023-03-15T23:37:42.807Z,4.50
2023-03-15T23:40:15.357Z,4.22
2023-03-15T23:42:43.435Z,4.28
2023-03-15T23:45:12.200Z,4.07
2023-03-15T23:47:39.431Z,4.18
2023-03-15T23:50:06.539Z,4.53
2023-03-15T23:52:32.911Z,4.65
2023-03-15T23:54:59.316Z,4.95
2023-03-15T23:57:25.768Z,4.00
2023-03-15T23:59:52.457Z,4.18
